Terminal Aerodrome Forecast
Issued by NWS Mt. Holly, NJ

Home | Current Version | Previous Version | Text Only | Print | Product List | Glossary On
Versions: 1 2 3 4 5 6 7 8 9 10 11 12 13 14 15 16 17 18 19 20
000
FTUS41 KPHI 111100
TAFILG
TAF
KILG 111133Z 1112/1212 01008KT P6SM SCT120
     FM111400 05008KT P6SM FEW045
     FM111800 08008KT P6SM SCT045
     FM112100 16008KT P6SM SCT045
     FM120300 VRB03KT P6SM SCT250
     FM120800 VRB03KT 3SM BR SCT250=

USA.gov is the U.S. government's official web portal to all federal, state and local government web resources and services.